createdAt,value
2023-03-15T00:01:37.410Z,88.10
2023-03-15T00:03:44.424Z,88.40
2023-03-15T00:05:53.247Z,88.30
2023-03-15T00:08:00.185Z,88.50
2023-03-15T00:10:07.944Z,88.80
2023-03-15T00:12:14.954Z,88.70
2023-03-15T00:14:22.344Z,88.80
2023-03-15T00:16:31.017Z,89.00
2023-03-15T00:18:38.135Z,89.40
2023-03-15T00:20:45.318Z,89.60
2023-03-15T00:22:52.551Z,89.50
2023-03-15T00:24:59.527Z,89.30
2023-03-15T00:27:07.068Z,88.90
2023-03-15T00:29:13.944Z,88.80
2023-03-15T00:31:23.396Z,88.80
2023-03-15T00:33:35.975Z,88.70
2023-03-15T00:35:44.517Z,88.80
2023-03-15T00:37:51.732Z,88.60
2023-03-15T00:39:58.964Z,88.60
2023-03-15T00:42:07.840Z,88.50
2023-03-15T00:44:15.018Z,88.80
2023-03-15T00:46:22.592Z,89.40
2023-03-15T00:48:32.066Z,89.40
2023-03-15T00:50:39.236Z,89.00
2023-03-15T00:52:46.515Z,88.80
2023-03-15T00:54:56.560Z,88.40
2023-03-15T00:57:04.506Z,88.10
2023-03-15T00:59:11.382Z,88.00
2023-03-15T01:01:20.070Z,87.40
2023-03-15T01:03:26.974Z,87.00
2023-03-15T01:05:35.951Z,86.70
2023-03-15T01:07:43.284Z,86.30
2023-03-15T01:09:50.518Z,86.40
2023-03-15T01:11:57.387Z,86.40
2023-03-15T01:14:06.159Z,85.90
2023-03-15T01:16:15.455Z,85.60
2023-03-15T01:18:22.825Z,85.40
2023-03-15T01:20:29.753Z,84.90
2023-03-15T01:22:38.622Z,84.00
2023-03-15T01:24:46.929Z,83.70
2023-03-15T01:26:54.063Z,83.10
2023-03-15T01:29:01.499Z,82.00
2023-03-15T01:31:09.708Z,81.80
2023-03-15T01:33:16.577Z,81.40
2023-03-15T01:35:23.706Z,81.00
2023-03-15T01:37:30.634Z,80.70
2023-03-15T01:39:40.687Z,80.80
2023-03-15T01:41:48.171Z,80.20
2023-03-15T01:43:56.581Z,80.30
2023-03-15T01:46:35.268Z,80.10
2023-03-15T01:49:08.507Z,80.00
2023-03-15T01:51:24.484Z,79.70
2023-03-15T01:53:33.614Z,79.70
2023-03-15T01:55:42.944Z,79.30
2023-03-15T01:57:57.022Z,79.40
2023-03-15T02:00:12.916Z,79.20
2023-03-15T02:02:26.496Z,79.20
2023-03-15T02:04:37.522Z,78.40
2023-03-15T02:06:47.633Z,78.00
2023-03-15T02:08:57.993Z,77.60
2023-03-15T02:11:10.128Z,76.50
2023-03-15T02:13:20.188Z,76.20
2023-03-15T02:15:27.211Z,76.80
2023-03-15T02:17:42.018Z,75.90
2023-03-15T02:19:56.262Z,75.30
2023-03-15T02:22:13.379Z,74.00
2023-03-15T02:24:32.386Z,73.50
2023-03-15T02:26:49.041Z,72.50
2023-03-15T02:28:58.069Z,71.10
2023-03-15T02:31:05.252Z,69.90
2023-03-15T02:33:17.501Z,70.20
2023-03-15T02:35:28.724Z,68.20
2023-03-15T02:38:12.260Z,69.60
2023-03-15T02:40:30.549Z,67.80
2023-03-15T02:42:37.479Z,67.80
2023-03-15T02:44:48.036Z,67.30
2023-03-15T02:46:58.190Z,67.00
2023-03-15T02:49:05.824Z,65.90
2023-03-15T02:51:23.103Z,65.50
2023-03-15T02:53:31.972Z,65.70
2023-03-15T02:55:38.949Z,65.50
2023-03-15T02:57:46.234Z,64.80
2023-03-15T02:59:56.078Z,64.20
2023-03-15T03:02:03.425Z,63.80
2023-03-15T03:04:10.650Z,63.90
2023-03-15T03:06:19.574Z,62.70
2023-03-15T03:08:27.267Z,61.00
2023-03-15T03:10:34.547Z,62.10
2023-03-15T03:12:41.632Z,62.50
2023-03-15T03:14:49.067Z,62.30
2023-03-15T03:17:00.649Z,62.50
2023-03-15T03:19:07.881Z,62.20
2023-03-15T03:21:15.830Z,60.70
2023-03-15T03:23:23.418Z,60.90
2023-03-15T03:25:30.394Z,61.30
2023-03-15T03:27:38.807Z,62.30
2023-03-15T03:29:48.442Z,61.30
2023-03-15T03:31:56.343Z,60.40
2023-03-15T03:34:05.005Z,59.30
2023-03-15T03:36:14.184Z,58.10
2023-03-15T03:38:21.186Z,57.60
2023-03-15T03:40:34.437Z,56.40
2023-03-15T03:42:43.613Z,57.40
2023-03-15T03:44:51.316Z,57.20
2023-03-15T03:46:59.264Z,56.50
2023-03-15T03:49:09.752Z,55.80
2023-03-15T03:51:16.744Z,56.30
2023-03-15T03:53:23.829Z,56.20
2023-03-15T03:55:30.851Z,56.30
2023-03-15T03:57:37.520Z,55.80
2023-03-15T03:59:46.751Z,55.60
2023-03-15T04:01:53.781Z,55.50
2023-03-15T04:04:00.958Z,55.40
2023-03-15T04:06:10.353Z,54.60
2023-03-15T04:08:21.467Z,52.90
2023-03-15T04:10:29.523Z,52.70
2023-03-15T04:12:36.364Z,52.40
2023-03-15T04:14:43.521Z,51.80
2023-03-15T04:16:51.730Z,52.40
2023-03-15T04:18:59.577Z,52.90
2023-03-15T04:21:14.741Z,52.80
2023-03-15T04:23:25.409Z,52.00
2023-03-15T04:25:39.812Z,51.30
2023-03-15T04:28:05.066Z,51.00
2023-03-15T04:30:28.019Z,49.60
2023-03-15T04:32:46.476Z,49.80
2023-03-15T04:35:01.182Z,49.80
2023-03-15T04:37:25.713Z,50.40
2023-03-15T04:39:59.011Z,50.20
2023-03-15T04:42:43.912Z,49.90
2023-03-15T04:45:14.098Z,49.70
2023-03-15T04:47:47.031Z,49.40
2023-03-15T04:50:16.896Z,49.90
2023-03-15T04:52:48.051Z,50.60
2023-03-15T04:55:14.118Z,51.00
2023-03-15T04:57:54.786Z,50.70
2023-03-15T05:00:27.967Z,48.90
2023-03-15T05:02:53.074Z,49.20
2023-03-15T05:05:08.039Z,49.70
2023-03-15T05:07:32.473Z,49.10
2023-03-15T05:09:57.677Z,50.90
2023-03-15T05:12:22.881Z,50.30
2023-03-15T05:14:38.158Z,49.20
2023-03-15T05:17:03.510Z,48.20
2023-03-15T05:19:25.745Z,48.60
2023-03-15T05:21:41.732Z,49.00
2023-03-15T05:24:06.990Z,48.70
2023-03-15T05:26:38.597Z,48.70
2023-03-15T05:28:48.589Z,49.30
2023-03-15T05:31:14.776Z,48.60
2023-03-15T05:33:41.662Z,48.00
2023-03-15T05:36:01.968Z,47.70
2023-03-15T05:38:16.966Z,48.00
2023-03-15T05:40:48.208Z,47.10
2023-03-15T05:43:12.749Z,46.90
2023-03-15T05:45:37.774Z,46.20
2023-03-15T05:48:13.855Z,47.70
2023-03-15T05:50:36.397Z,47.20
2023-03-15T05:52:46.244Z,46.50
2023-03-15T05:55:31.313Z,45.50
2023-03-15T05:58:18.129Z,46.00
2023-03-15T06:00:51.979Z,45.70
2023-03-15T06:03:16.543Z,45.60
2023-03-15T06:05:31.790Z,44.70
2023-03-15T06:07:42.662Z,44.90
2023-03-15T06:09:49.939Z,44.70
2023-03-15T06:11:57.069Z,44.50
2023-03-15T06:14:05.788Z,44.30
2023-03-15T06:16:28.612Z,43.40
2023-03-15T06:18:37.716Z,44.40
2023-03-15T06:20:44.638Z,46.20
2023-03-15T06:22:53.816Z,45.40
2023-03-15T06:25:10.577Z,44.80
2023-03-15T06:27:17.380Z,45.00
2023-03-15T06:29:26.011Z,43.50
2023-03-15T06:31:36.212Z,42.70
2023-03-15T06:33:46.877Z,43.50
2023-03-15T06:35:53.757Z,44.60
2023-03-15T06:38:00.828Z,44.40
2023-03-15T06:40:10.677Z,44.10
2023-03-15T06:42:17.969Z,44.60
2023-03-15T06:44:26.421Z,43.80
2023-03-15T06:46:37.440Z,43.30
2023-03-15T06:48:46.976Z,43.10
2023-03-15T06:50:55.132Z,43.90
2023-03-15T06:53:02.580Z,44.40
2023-03-15T06:55:11.233Z,44.90
2023-03-15T06:57:20.156Z,44.50
2023-03-15T06:59:28.824Z,44.20
2023-03-15T07:01:41.676Z,44.50
2023-03-15T07:03:48.875Z,45.70
2023-03-15T07:05:55.695Z,44.50
2023-03-15T07:08:02.520Z,45.70
2023-03-15T07:10:09.755Z,44.40
2023-03-15T07:12:17.347Z,44.00
2023-03-15T07:14:24.016Z,45.10
2023-03-15T07:16:32.735Z,45.20
2023-03-15T07:18:39.559Z,44.50
2023-03-15T07:20:46.659Z,44.00
2023-03-15T07:22:53.920Z,44.10
2023-03-15T07:25:00.642Z,43.30
2023-03-15T07:27:07.823Z,44.70
2023-03-15T07:29:14.596Z,43.80
2023-03-15T07:31:21.418Z,43.10
2023-03-15T07:33:30.443Z,43.90
2023-03-15T07:35:37.510Z,43.20
2023-03-15T07:37:45.081Z,43.40
2023-03-15T07:39:51.988Z,43.30
2023-03-15T07:41:58.658Z,43.00
2023-03-15T07:44:11.570Z,42.70
2023-03-15T07:46:19.912Z,42.90
2023-03-15T07:48:30.302Z,42.90
2023-03-15T07:50:38.130Z,42.60
2023-03-15T07:52:45.058Z,42.70
2023-03-15T07:54:51.931Z,41.60
2023-03-15T07:56:58.706Z,41.50
2023-03-15T07:59:05.882Z,41.90
2023-03-15T08:01:13.269Z,41.80
2023-03-15T08:03:20.217Z,42.00
2023-03-15T08:05:29.232Z,42.00
2023-03-15T08:07:37.529Z,42.00
2023-03-15T08:09:44.453Z,42.20
2023-03-15T08:11:51.747Z,42.30
2023-03-15T08:13:58.410Z,42.30
2023-03-15T08:16:05.504Z,42.60
2023-03-15T08:18:12.330Z,42.30
2023-03-15T08:20:20.334Z,42.70
2023-03-15T08:22:28.724Z,42.30
2023-03-15T08:24:35.853Z,42.40
2023-03-15T08:26:44.238Z,42.50
2023-03-15T08:28:51.292Z,42.70
2023-03-15T08:30:57.961Z,42.80
2023-03-15T08:33:05.079Z,42.30
2023-03-15T08:35:15.612Z,42.20
2023-03-15T08:37:22.993Z,42.10
2023-03-15T08:39:31.348Z,41.60
2023-03-15T08:41:38.376Z,41.80
2023-03-15T08:43:45.147Z,42.20
2023-03-15T08:46:01.690Z,41.80
2023-03-15T08:48:09.031Z,42.60
2023-03-15T08:50:18.364Z,42.40
2023-03-15T08:52:25.338Z,42.80
2023-03-15T08:54:33.962Z,42.60
2023-03-15T08:56:40.685Z,42.60
2023-03-15T08:58:48.163Z,42.90
2023-03-15T09:00:55.139Z,42.90
2023-03-15T09:03:02.381Z,42.70
2023-03-15T09:05:12.051Z,43.00
2023-03-15T09:07:19.245Z,43.20
2023-03-15T09:09:26.016Z,42.70
2023-03-15T09:11:34.582Z,42.20
2023-03-15T09:13:41.252Z,43.00
2023-03-15T09:15:48.225Z,42.80
2023-03-15T09:17:55.418Z,43.00
2023-03-15T09:20:02.436Z,43.90
2023-03-15T09:22:16.522Z,45.10
2023-03-15T09:24:30.624Z,45.50
2023-03-15T09:26:39.113Z,44.60
2023-03-15T09:28:46.475Z,44.60
2023-03-15T09:30:53.234Z,44.20
2023-03-15T09:33:00.436Z,44.20
2023-03-15T09:35:07.979Z,44.10
2023-03-15T09:37:15.101Z,43.90
2023-03-15T09:39:22.590Z,43.70
2023-03-15T09:41:43.832Z,43.30
2023-03-15T09:44:13.616Z,42.90
2023-03-15T09:46:29.644Z,42.60
2023-03-15T09:48:41.039Z,42.60
2023-03-15T09:50:48.829Z,43.10
2023-03-15T09:52:58.077Z,42.50
2023-03-15T09:55:09.697Z,43.00
2023-03-15T09:57:22.677Z,43.20
2023-03-15T09:59:34.612Z,43.50
2023-03-15T10:01:41.540Z,43.50
2023-03-15T10:03:52.432Z,42.60
2023-03-15T10:06:03.781Z,43.60
2023-03-15T10:08:13.276Z,43.70
2023-03-15T10:10:22.432Z,43.40
2023-03-15T10:12:34.647Z,44.00
2023-03-15T10:15:03.943Z,44.10
2023-03-15T10:17:14.764Z,44.60
2023-03-15T10:19:35.006Z,45.00
2023-03-15T10:21:52.175Z,45.60
2023-03-15T10:23:59.091Z,46.10
2023-03-15T10:26:11.681Z,46.50
2023-03-15T10:28:27.583Z,46.90
2023-03-15T10:30:36.048Z,47.20
2023-03-15T10:32:47.256Z,47.40
2023-03-15T10:34:58.344Z,47.70
2023-03-15T10:37:07.314Z,48.00
2023-03-15T10:39:15.649Z,48.40
2023-03-15T10:41:33.044Z,48.60
2023-03-15T10:43:42.632Z,48.80
2023-03-15T10:46:01.608Z,49.00
2023-03-15T10:48:08.975Z,49.30
2023-03-15T10:50:22.713Z,49.70
2023-03-15T10:52:36.237Z,50.00
2023-03-15T10:54:44.996Z,50.30
2023-03-15T10:56:53.934Z,50.80
2023-03-15T10:59:12.200Z,50.90
2023-03-15T11:01:28.938Z,51.10
2023-03-15T11:03:36.214Z,51.50
2023-03-15T11:05:45.699Z,51.90
2023-03-15T11:07:59.944Z,52.20
2023-03-15T11:10:23.870Z,52.40
2023-03-15T11:12:32.081Z,52.60
2023-03-15T11:14:42.748Z,52.70
2023-03-15T11:16:54.273Z,53.10
2023-03-15T11:19:04.627Z,53.30
2023-03-15T11:21:15.150Z,53.50
2023-03-15T11:23:26.841Z,53.80
2023-03-15T11:25:35.337Z,54.10
2023-03-15T11:27:42.163Z,54.30
2023-03-15T11:29:54.156Z,54.60
2023-03-15T11:32:03.334Z,55.00
2023-03-15T11:34:15.664Z,55.30
2023-03-15T11:36:25.740Z,55.40
2023-03-15T11:38:38.297Z,55.70
2023-03-15T11:40:49.070Z,56.00
2023-03-15T11:43:00.852Z,56.10
2023-03-15T11:45:17.555Z,56.90
2023-03-15T11:47:37.796Z,57.70
2023-03-15T11:49:52.093Z,57.80
2023-03-15T11:52:00.245Z,58.00
2023-03-15T11:54:14.544Z,57.90
2023-03-15T11:56:26.661Z,57.90
2023-03-15T11:58:36.385Z,57.90
2023-03-15T12:01:03.736Z,58.10
2023-03-15T12:03:42.192Z,58.90
2023-03-15T12:05:53.787Z,59.10
2023-03-15T12:08:01.633Z,58.50
2023-03-15T12:10:37.387Z,59.30
2023-03-15T12:12:49.997Z,59.40
2023-03-15T12:15:07.126Z,59.10
2023-03-15T12:17:41.323Z,58.70
2023-03-15T12:19:48.303Z,58.20
2023-03-15T12:21:57.142Z,57.90
2023-03-15T12:24:06.810Z,57.70
2023-03-15T12:26:43.036Z,57.90
2023-03-15T12:28:55.940Z,58.10
2023-03-15T12:31:05.328Z,58.60
2023-03-15T12:33:19.275Z,58.90
2023-03-15T12:35:27.930Z,59.30
2023-03-15T12:37:46.531Z,59.20
2023-03-15T12:39:54.884Z,59.40
2023-03-15T12:42:02.734Z,59.50
2023-03-15T12:44:40.119Z,59.70
2023-03-15T12:47:01.348Z,61.00
2023-03-15T12:49:16.298Z,61.10
2023-03-15T12:51:47.385Z,61.50
2023-03-15T12:53:55.388Z,62.80
2023-03-15T12:56:18.910Z,62.40
2023-03-15T12:58:32.278Z,62.40
2023-03-15T13:00:42.123Z,62.50
2023-03-15T13:02:51.515Z,62.40
2023-03-15T13:05:28.898Z,62.50
2023-03-15T13:07:51.542Z,62.50
2023-03-15T13:10:25.042Z,62.30
2023-03-15T13:12:35.970Z,62.80
2023-03-15T13:14:47.134Z,62.70
2023-03-15T13:17:05.758Z,63.80
2023-03-15T13:19:23.904Z,64.30
2023-03-15T13:21:37.248Z,64.30
2023-03-15T13:23:52.940Z,64.70
2023-03-15T13:26:13.950Z,65.00
2023-03-15T13:28:25.521Z,65.70
2023-03-15T13:30:39.809Z,66.00
2023-03-15T13:32:47.487Z,66.60
2023-03-15T13:34:54.854Z,66.60
2023-03-15T13:37:03.822Z,67.00
2023-03-15T13:39:19.402Z,67.20
2023-03-15T13:41:28.385Z,67.50
2023-03-15T13:43:37.509Z,67.60
2023-03-15T13:45:46.258Z,67.80
2023-03-15T13:47:53.146Z,68.10
2023-03-15T13:50:00.480Z,68.10
2023-03-15T13:52:15.201Z,68.30
2023-03-15T13:54:24.214Z,68.70
2023-03-15T13:56:46.816Z,69.00
2023-03-15T13:58:55.474Z,68.80
2023-03-15T14:01:04.398Z,69.20
2023-03-15T14:03:16.211Z,69.40
2023-03-15T14:05:28.696Z,69.30
2023-03-15T14:07:40.797Z,69.10
2023-03-15T14:09:48.688Z,69.60
2023-03-15T14:12:06.469Z,69.20
2023-03-15T14:14:28.805Z,69.80
2023-03-15T14:16:38.478Z,70.00
2023-03-15T14:18:52.335Z,70.40
2023-03-15T14:21:03.457Z,70.00
2023-03-15T14:23:16.070Z,70.40
2023-03-15T14:25:25.813Z,70.50
2023-03-15T14:27:32.991Z,70.80
2023-03-15T14:29:41.453Z,71.20
2023-03-15T14:31:52.338Z,71.40
2023-03-15T14:34:01.962Z,71.70
2023-03-15T14:36:12.180Z,71.60
2023-03-15T14:38:24.827Z,71.80
2023-03-15T14:40:36.415Z,71.80
2023-03-15T14:42:42.567Z,71.80
2023-03-15T14:44:49.288Z,73.20
2023-03-15T14:46:56.526Z,71.90
2023-03-15T14:49:03.550Z,71.60
2023-03-15T14:51:15.902Z,71.50
2023-03-15T14:53:27.230Z,71.50
2023-03-15T14:55:35.894Z,72.30
2023-03-15T14:57:42.881Z,72.50
2023-03-15T14:59:49.797Z,72.30
2023-03-15T15:01:59.567Z,72.40
2023-03-15T15:04:07.289Z,72.60
2023-03-15T15:06:15.947Z,73.00
2023-03-15T15:08:25.486Z,73.20
2023-03-15T15:10:32.418Z,74.00
2023-03-15T15:12:39.503Z,73.80
2023-03-15T15:14:46.570Z,73.90
2023-03-15T15:16:53.428Z,74.00
2023-03-15T15:19:00.124Z,74.20
2023-03-15T15:21:14.261Z,74.30
2023-03-15T15:23:25.698Z,74.20
2023-03-15T15:25:34.764Z,74.00
2023-03-15T15:27:41.849Z,73.80
2023-03-15T15:29:48.570Z,73.40
2023-03-15T15:31:55.600Z,73.50
2023-03-15T15:34:02.778Z,73.40
2023-03-15T15:36:14.859Z,73.60
2023-03-15T15:38:20.788Z,74.00
2023-03-15T15:40:31.795Z,75.50
2023-03-15T15:42:38.718Z,74.70
2023-03-15T15:44:46.822Z,74.50
2023-03-15T15:46:53.490Z,74.90
2023-03-15T15:49:00.519Z,74.90
2023-03-15T15:51:16.561Z,75.10
2023-03-15T15:53:23.589Z,74.80
2023-03-15T15:55:35.530Z,74.80
2023-03-15T15:57:42.452Z,74.90
2023-03-15T15:59:49.126Z,75.60
2023-03-15T16:02:01.590Z,75.30
2023-03-15T16:04:09.120Z,75.50
2023-03-15T16:06:21.063Z,76.40
2023-03-15T16:08:29.113Z,76.60
2023-03-15T16:10:37.882Z,76.40
2023-03-15T16:12:44.603Z,76.20
2023-03-15T16:14:51.841Z,76.00
2023-03-15T16:16:58.761Z,76.40
2023-03-15T16:19:05.943Z,76.30
2023-03-15T16:21:20.805Z,76.40
2023-03-15T16:23:28.702Z,76.60
2023-03-15T16:25:39.061Z,76.60
2023-03-15T16:27:46.354Z,77.30
2023-03-15T16:29:56.039Z,77.60
2023-03-15T16:32:15.966Z,78.30
2023-03-15T16:34:25.963Z,79.00
2023-03-15T16:36:36.216Z,78.90
2023-03-15T16:38:42.936Z,79.40
2023-03-15T16:40:51.920Z,78.80
2023-03-15T16:42:59.555Z,78.70
2023-03-15T16:45:12.476Z,79.30
2023-03-15T16:47:19.141Z,79.70
2023-03-15T16:49:25.960Z,80.00
2023-03-15T16:51:32.886Z,81.00
2023-03-15T16:53:40.228Z,81.20
2023-03-15T16:55:46.892Z,82.10
2023-03-15T16:57:55.660Z,81.40
2023-03-15T17:00:04.735Z,81.20
2023-03-15T17:02:21.512Z,80.90
2023-03-15T17:04:28.417Z,81.20
2023-03-15T17:06:35.651Z,81.20
2023-03-15T17:08:42.373Z,81.00
2023-03-15T17:10:50.274Z,81.10
2023-03-15T17:12:59.766Z,81.60
2023-03-15T17:15:07.713Z,83.60
2023-03-15T17:17:14.531Z,84.50
2023-03-15T17:19:22.025Z,85.10
2023-03-15T17:21:30.072Z,84.00
2023-03-15T17:23:37.359Z,83.50
2023-03-15T17:25:44.384Z,83.40
2023-03-15T17:27:52.590Z,83.60
2023-03-15T17:30:01.664Z,83.80
2023-03-15T17:32:15.292Z,84.20
2023-03-15T17:34:23.561Z,84.40
2023-03-15T17:36:33.505Z,83.80
2023-03-15T17:38:43.295Z,83.80
2023-03-15T17:40:50.822Z,83.80
2023-03-15T17:42:58.733Z,83.70
2023-03-15T17:45:17.238Z,84.40
2023-03-15T17:47:23.847Z,85.70
2023-03-15T17:49:30.825Z,86.30
2023-03-15T17:51:39.591Z,85.20
2023-03-15T17:53:46.569Z,86.20
2023-03-15T17:55:54.674Z,87.10
2023-03-15T17:58:01.398Z,87.90
2023-03-15T18:00:13.341Z,87.60
2023-03-15T18:02:20.317Z,87.00
2023-03-15T18:04:27.600Z,86.70
2023-03-15T18:06:34.226Z,86.30
2023-03-15T18:08:41.196Z,86.20
2023-03-15T18:10:49.002Z,86.60
2023-03-15T18:12:55.919Z,86.80
2023-03-15T18:15:03.560Z,86.70
2023-03-15T18:17:12.790Z,86.90
2023-03-15T18:19:19.410Z,86.80
2023-03-15T18:21:27.922Z,86.30
2023-03-15T18:23:34.589Z,86.70
2023-03-15T18:25:41.923Z,86.90
2023-03-15T18:27:48.902Z,87.10
2023-03-15T18:29:56.419Z,86.10
2023-03-15T18:32:03.203Z,85.80
2023-03-15T18:34:16.640Z,86.20
2023-03-15T18:36:23.576Z,86.20
2023-03-15T18:38:30.987Z,86.00
2023-03-15T18:40:38.248Z,85.40
2023-03-15T18:42:45.326Z,85.20
2023-03-15T18:44:52.084Z,85.20
2023-03-15T18:46:59.222Z,85.60
2023-03-15T18:49:05.994Z,85.50
2023-03-15T18:51:15.891Z,85.90
2023-03-15T18:53:22.602Z,86.30
2023-03-15T18:55:29.838Z,86.60
2023-03-15T18:57:36.556Z,86.50
2023-03-15T18:59:43.228Z,86.80
2023-03-15T19:01:50.406Z,85.90
2023-03-15T19:03:58.119Z,85.60
2023-03-15T19:06:08.560Z,85.20
2023-03-15T19:08:17.126Z,85.20
2023-03-15T19:10:24.929Z,85.30
2023-03-15T19:12:31.845Z,86.20
2023-03-15T19:14:38.620Z,86.80
2023-03-15T19:16:45.819Z,87.00
2023-03-15T19:18:52.725Z,86.70
2023-03-15T19:20:59.890Z,86.40
2023-03-15T19:23:06.578Z,86.50
2023-03-15T19:25:16.015Z,86.60
2023-03-15T19:27:22.736Z,86.30
2023-03-15T19:29:30.530Z,86.70
2023-03-15T19:31:37.198Z,87.00
2023-03-15T19:33:44.227Z,87.50
2023-03-15T19:35:50.917Z,87.30
2023-03-15T19:37:58.134Z,87.30
2023-03-15T19:40:04.907Z,87.40
2023-03-15T19:42:13.518Z,86.70
2023-03-15T19:44:20.237Z,86.50
2023-03-15T19:46:27.223Z,86.30
2023-03-15T19:48:33.989Z,86.00
2023-03-15T19:50:40.967Z,86.00
2023-03-15T19:52:51.028Z,86.40
2023-03-15T19:54:58.040Z,86.10
2023-03-15T19:57:05.018Z,86.30
2023-03-15T19:59:13.739Z,86.60
2023-03-15T20:01:20.629Z,86.60
2023-03-15T20:03:28.252Z,86.90
2023-03-15T20:05:35.179Z,86.80
2023-03-15T20:07:43.511Z,86.60
2023-03-15T20:09:50.360Z,86.50
2023-03-15T20:11:57.544Z,86.40
2023-03-15T20:14:05.190Z,86.40
2023-03-15T20:16:14.407Z,86.20
2023-03-15T20:18:21.396Z,86.10
2023-03-15T20:20:28.780Z,86.30
2023-03-15T20:22:35.656Z,86.40
2023-03-15T20:24:45.202Z,86.70
2023-03-15T20:26:54.324Z,87.00
2023-03-15T20:29:01.201Z,87.10
2023-03-15T20:31:13.137Z,87.50
2023-03-15T20:33:19.971Z,86.80
2023-03-15T20:35:27.350Z,87.60
2023-03-15T20:37:36.015Z,88.10
2023-03-15T20:39:43.350Z,88.20
2023-03-15T20:41:50.232Z,88.10
2023-03-15T20:43:57.309Z,88.60
2023-03-15T20:46:05.512Z,88.80
2023-03-15T20:48:14.738Z,88.50
2023-03-15T20:50:22.092Z,87.80
2023-03-15T20:52:29.378Z,87.30
2023-03-15T20:54:37.817Z,86.80
2023-03-15T20:56:45.010Z,86.70
2023-03-15T20:58:52.297Z,86.70
2023-03-15T21:01:06.497Z,86.90
2023-03-15T21:03:15.907Z,86.90
2023-03-15T21:05:23.763Z,86.90
2023-03-15T21:07:30.686Z,87.20
2023-03-15T21:09:38.178Z,88.90
2023-03-15T21:11:45.368Z,88.70
2023-03-15T21:13:52.484Z,88.30
2023-03-15T21:16:00.045Z,88.20
2023-03-15T21:18:07.257Z,88.40
2023-03-15T21:20:16.702Z,87.90
2023-03-15T21:22:23.921Z,87.80
2023-03-15T21:24:43.236Z,88.20
2023-03-15T21:26:56.712Z,87.70
2023-03-15T21:29:03.688Z,87.60
2023-03-15T21:31:11.242Z,88.00
2023-03-15T21:33:18.050Z,88.30
2023-03-15T21:35:27.350Z,88.70
2023-03-15T21:37:34.207Z,89.10
2023-03-15T21:39:41.383Z,89.60
2023-03-15T21:41:48.269Z,90.00
2023-03-15T21:43:55.594Z,89.80
2023-03-15T21:46:03.789Z,89.50
2023-03-15T21:48:12.637Z,89.10
2023-03-15T21:50:21.278Z,88.80
2023-03-15T21:52:30.375Z,88.60
2023-03-15T21:54:37.235Z,88.70
2023-03-15T21:56:44.418Z,88.80
2023-03-15T21:58:51.345Z,88.70
2023-03-15T22:01:02.350Z,88.90
2023-03-15T22:03:09.551Z,88.90
2023-03-15T22:05:16.780Z,89.00
2023-03-15T22:07:23.757Z,88.90
2023-03-15T22:09:32.630Z,88.60
2023-03-15T22:11:39.606Z,88.70
2023-03-15T22:13:46.898Z,88.80
2023-03-15T22:15:54.378Z,88.90
2023-03-15T22:18:01.564Z,88.80
2023-03-15T22:20:13.826Z,89.00
2023-03-15T22:22:21.350Z,89.30
2023-03-15T22:24:28.275Z,89.30
2023-03-15T22:26:37.201Z,89.30
2023-03-15T22:28:44.124Z,89.20
2023-03-15T22:30:52.387Z,89.20
2023-03-15T22:32:59.340Z,89.40
2023-03-15T22:35:06.846Z,89.60
2023-03-15T22:37:14.246Z,89.60
2023-03-15T22:39:21.419Z,89.70
2023-03-15T22:41:28.806Z,89.70
2023-03-15T22:43:37.934Z,89.50
2023-03-15T22:45:44.756Z,89.50
2023-03-15T22:47:52.299Z,89.40
2023-03-15T22:50:00.659Z,89.40
2023-03-15T22:52:08.095Z,89.40
2023-03-15T22:54:15.020Z,89.50
2023-03-15T22:56:22.255Z,89.20
2023-03-15T22:58:29.490Z,89.00
2023-03-15T23:00:38.381Z,88.80
2023-03-15T23:02:45.898Z,88.80
2023-03-15T23:04:53.014Z,89.10
2023-03-15T23:06:59.856Z,88.80
2023-03-15T23:09:07.089Z,88.60
2023-03-15T23:11:13.911Z,88.60
2023-03-15T23:13:21.308Z,88.50
2023-03-15T23:15:28.640Z,88.20
2023-03-15T23:17:37.812Z,88.00
2023-03-15T23:19:44.687Z,87.90
2023-03-15T23:21:51.920Z,87.70
2023-03-15T23:23:58.691Z,87.40
2023-03-15T23:26:06.059Z,87.40
2023-03-15T23:28:13.054Z,87.10
2023-03-15T23:30:20.496Z,87.00
2023-03-15T23:32:27.675Z,87.10
2023-03-15T23:34:43.509Z,86.90
2023-03-15T23:36:50.283Z,87.10
2023-03-15T23:38:57.471Z,87.20
2023-03-15T23:41:05.979Z,87.20
2023-03-15T23:43:13.421Z,87.30
2023-03-15T23:45:20.394Z,87.60
2023-03-15T23:47:28.599Z,87.40
2023-03-15T23:49:37.428Z,87.50
2023-03-15T23:51:44.909Z,87.50
2023-03-15T23:53:51.787Z,87.30
2023-03-15T23:55:59.429Z,87.30
2023-03-15T23:58:07.785Z,87.00
